createdAt,value
2024-02-19T00:02:20.276Z,85.82
2024-02-19T00:05:24.565Z,84.97
2024-02-19T00:08:27.082Z,85.14
2024-02-19T00:11:31.304Z,84.21
2024-02-19T00:14:33.648Z,83.18
2024-02-19T00:17:36.565Z,81.42
2024-02-19T00:20:39.175Z,79.15
2024-02-19T00:23:42.030Z,80.43
2024-02-19T00:26:44.217Z,82.40
2024-02-19T00:29:46.765Z,83.55
2024-02-19T00:32:49.751Z,84.68
2024-02-19T00:35:52.794Z,84.20
2024-02-19T00:38:55.834Z,84.69
2024-02-19T00:41:59.265Z,85.73
2024-02-19T00:45:01.940Z,84.29
2024-02-19T00:48:04.996Z,83.00
2024-02-19T00:51:07.621Z,81.54
2024-02-19T00:54:10.145Z,79.61
2024-02-19T00:57:12.517Z,76.73
2024-02-19T01:00:15.352Z,76.00
2024-02-19T01:03:18.490Z,73.60
2024-02-19T01:06:21.287Z,71.74
2024-02-19T01:09:23.860Z,70.58
2024-02-19T01:12:26.673Z,69.82
2024-02-19T01:15:29.217Z,69.03
2024-02-19T01:18:31.808Z,68.50
2024-02-19T01:21:34.169Z,68.16
2024-02-19T01:24:37.089Z,67.96
2024-02-19T01:27:40.043Z,67.82
2024-02-19T01:30:42.977Z,67.69
2024-02-19T01:33:45.640Z,67.67
2024-02-19T01:36:48.775Z,67.57
2024-02-19T01:39:51.054Z,68.48
2024-02-19T01:43:04.130Z,70.20
2024-02-19T01:46:06.706Z,68.79
2024-02-19T01:49:12.042Z,68.58
2024-02-19T01:52:14.317Z,68.41
2024-02-19T01:55:18.660Z,67.94
2024-02-19T01:58:21.118Z,67.98
2024-02-19T02:01:25.316Z,67.80
2024-02-19T02:04:28.405Z,68.40
2024-02-19T02:07:31.584Z,68.48
2024-02-19T02:10:33.921Z,68.54
2024-02-19T02:13:37.048Z,68.21
2024-02-19T02:16:39.292Z,67.64
2024-02-19T02:19:43.127Z,67.89
2024-02-19T02:22:46.405Z,67.46
2024-02-19T02:25:49.348Z,67.42
2024-02-19T02:28:51.461Z,67.05
2024-02-19T02:31:55.031Z,67.51
2024-02-19T02:34:57.293Z,67.18
2024-02-19T02:38:01.330Z,67.07
2024-02-19T02:41:04.135Z,67.11
2024-02-19T02:44:06.804Z,67.10
2024-02-19T02:47:09.194Z,67.02
2024-02-19T02:50:12.015Z,67.06
2024-02-19T02:53:14.274Z,67.07
2024-02-19T02:56:24.233Z,67.40
2024-02-19T02:59:26.289Z,67.21
2024-02-19T03:02:29.021Z,67.08
2024-02-19T03:05:31.500Z,66.90
2024-02-19T03:08:34.138Z,66.79
2024-02-19T03:11:36.261Z,66.81
2024-02-19T03:14:39.383Z,66.79
2024-02-19T03:17:41.676Z,66.79
2024-02-19T03:20:44.337Z,66.85
2024-02-19T03:23:53.905Z,66.72
2024-02-19T03:26:59.092Z,66.58
2024-02-19T03:30:01.220Z,66.37
2024-02-19T03:33:04.765Z,66.30
2024-02-19T03:36:08.579Z,66.28
2024-02-19T03:39:11.439Z,66.21
2024-02-19T03:42:13.694Z,66.32
2024-02-19T03:45:18.475Z,66.38
2024-02-19T03:48:20.642Z,66.22
2024-02-19T03:51:23.423Z,66.17
2024-02-19T03:54:26.208Z,66.12
2024-02-19T03:57:29.578Z,66.09
2024-02-19T04:00:32.420Z,66.10
2024-02-19T04:03:35.013Z,66.39
2024-02-19T04:06:37.323Z,66.31
2024-02-19T04:09:40.446Z,66.20
2024-02-19T04:12:43.041Z,66.22
2024-02-19T04:15:45.802Z,66.10
2024-02-19T04:18:48.230Z,66.14
2024-02-19T04:21:51.368Z,66.34
2024-02-19T04:24:53.990Z,66.42
2024-02-19T04:27:56.544Z,66.29
2024-02-19T04:30:59.125Z,66.16
2024-02-19T04:34:02.078Z,66.16
2024-02-19T04:37:04.902Z,66.03
2024-02-19T04:40:10.421Z,65.91
2024-02-19T04:43:12.663Z,65.89
2024-02-19T04:46:15.272Z,65.80
2024-02-19T04:49:17.668Z,65.73
2024-02-19T04:52:20.282Z,65.85
2024-02-19T04:55:22.627Z,65.80
2024-02-19T04:58:25.347Z,65.84
2024-02-19T05:01:33.389Z,65.99
2024-02-19T05:04:36.125Z,66.11
2024-02-19T05:07:38.663Z,66.03
2024-02-19T05:10:42.436Z,65.96
2024-02-19T05:13:45.017Z,66.03
2024-02-19T05:16:47.770Z,66.58
2024-02-19T05:19:50.094Z,66.57
2024-02-19T05:22:52.728Z,66.23
2024-02-19T05:25:55.047Z,66.53
2024-02-19T05:28:57.689Z,66.23
2024-02-19T05:32:01.218Z,66.58
2024-02-19T05:35:04.886Z,66.18
2024-02-19T05:38:07.113Z,66.03
2024-02-19T05:41:09.704Z,66.85
2024-02-19T05:44:12.502Z,66.37
2024-02-19T05:47:17.209Z,65.99
2024-02-19T05:50:20.089Z,66.08
2024-02-19T05:53:22.927Z,66.25
2024-02-19T05:56:27.762Z,66.29
2024-02-19T05:59:30.451Z,66.06
2024-02-19T06:02:33.092Z,65.95
2024-02-19T06:05:35.825Z,66.05
2024-02-19T06:08:38.702Z,66.06
2024-02-19T06:11:48.319Z,66.03
2024-02-19T06:14:50.510Z,66.15
2024-02-19T06:17:52.964Z,66.04
2024-02-19T06:20:55.247Z,65.98
2024-02-19T06:23:58.222Z,66.01
2024-02-19T06:27:00.344Z,66.00
2024-02-19T06:30:03.266Z,66.05
2024-02-19T06:33:05.984Z,66.09
2024-02-19T06:36:08.863Z,65.97
2024-02-19T06:39:10.967Z,65.96
2024-02-19T06:42:13.746Z,65.90
2024-02-19T06:45:15.801Z,65.91
2024-02-19T06:48:18.716Z,65.97
2024-02-19T06:51:21.016Z,66.02
2024-02-19T06:54:25.886Z,66.13
2024-02-19T06:57:30.031Z,66.14
2024-02-19T07:00:32.569Z,66.03
2024-02-19T07:03:35.538Z,65.99
2024-02-19T07:06:39.134Z,66.00
2024-02-19T07:09:42.027Z,65.99
2024-02-19T07:12:44.667Z,66.07
2024-02-19T07:15:47.146Z,66.10
2024-02-19T07:18:51.088Z,66.17
2024-02-19T07:21:53.466Z,66.27
2024-02-19T07:25:05.798Z,66.27
2024-02-19T07:28:16.097Z,66.21
2024-02-19T07:31:18.835Z,66.33
2024-02-19T07:34:21.586Z,66.38
2024-02-19T07:37:24.444Z,66.39
2024-02-19T07:40:26.880Z,66.35
2024-02-19T07:43:29.442Z,66.41
2024-02-19T07:46:32.278Z,66.41
2024-02-19T07:49:35.306Z,66.41
2024-02-19T07:52:38.187Z,66.38
2024-02-19T07:55:40.830Z,66.23
2024-02-19T07:58:43.027Z,66.39
2024-02-19T08:01:45.869Z,66.33
2024-02-19T08:04:48.190Z,66.29
2024-02-19T08:07:51.455Z,66.17
2024-02-19T08:10:54.268Z,66.07
2024-02-19T08:13:57.746Z,66.02
2024-02-19T08:16:59.953Z,65.84
2024-02-19T08:20:02.710Z,65.86
2024-02-19T08:23:05.459Z,65.75
2024-02-19T08:26:07.953Z,65.78
2024-02-19T08:29:10.862Z,65.84
2024-02-19T08:32:13.397Z,65.68
2024-02-19T08:35:16.166Z,65.72
2024-02-19T08:38:19.527Z,65.76
2024-02-19T08:41:21.597Z,65.70
2024-02-19T08:44:25.500Z,65.55
2024-02-19T08:47:27.667Z,65.56
2024-02-19T08:50:30.310Z,65.57
2024-02-19T08:53:32.800Z,65.50
2024-02-19T08:56:35.363Z,65.56
2024-02-19T08:59:39.348Z,65.58
2024-02-19T09:02:43.669Z,65.57
2024-02-19T09:05:46.181Z,65.48
2024-02-19T09:08:49.002Z,65.28
2024-02-19T09:11:51.325Z,65.18
2024-02-19T09:14:56.481Z,65.20
2024-02-19T09:17:58.879Z,65.25
2024-02-19T09:21:01.858Z,65.27
2024-02-19T09:24:05.022Z,65.34
2024-02-19T09:27:07.907Z,65.30
2024-02-19T09:30:10.455Z,65.22
2024-02-19T09:33:13.128Z,65.22
2024-02-19T09:36:19.667Z,65.19
2024-02-19T09:39:22.216Z,65.19
2024-02-19T09:42:24.492Z,65.21
2024-02-19T09:45:27.367Z,65.26
2024-02-19T09:48:30.041Z,65.19
2024-02-19T09:51:40.860Z,65.15
2024-02-19T09:54:44.164Z,65.17
2024-02-19T09:57:47.608Z,65.26
2024-02-19T10:00:50.211Z,65.13
2024-02-19T10:03:53.300Z,65.07
2024-02-19T10:07:01.357Z,65.11
2024-02-19T10:10:05.898Z,65.02
2024-02-19T10:13:11.398Z,65.08
2024-02-19T10:16:14.109Z,65.04
2024-02-19T10:19:16.905Z,65.06
2024-02-19T10:22:22.597Z,65.20
2024-02-19T10:25:25.154Z,64.99
2024-02-19T10:28:30.015Z,64.88
2024-02-19T10:31:32.786Z,64.93
2024-02-19T10:34:36.047Z,64.94
2024-02-19T10:37:38.478Z,64.86
2024-02-19T10:40:41.194Z,64.92
2024-02-19T10:43:45.574Z,64.94
2024-02-19T10:46:48.241Z,64.95
2024-02-19T10:49:55.742Z,64.97
2024-02-19T10:52:59.893Z,65.09
2024-02-19T10:56:19.571Z,65.10
2024-02-19T10:59:22.469Z,65.06
2024-02-19T11:02:26.789Z,64.98
2024-02-19T11:05:30.744Z,64.93
2024-02-19T11:08:36.624Z,64.89
2024-02-19T11:11:48.777Z,64.86
2024-02-19T11:14:52.616Z,64.88
2024-02-19T11:17:57.853Z,64.90
2024-02-19T11:21:08.645Z,64.81
2024-02-19T11:24:11.611Z,64.81
2024-02-19T11:27:13.990Z,64.72
2024-02-19T11:30:16.912Z,64.73
2024-02-19T11:33:20.907Z,64.70
2024-02-19T11:36:23.287Z,64.60
2024-02-19T11:39:25.817Z,64.71
2024-02-19T11:42:29.333Z,64.68
2024-02-19T11:45:33.262Z,64.58
2024-02-19T11:48:37.581Z,64.51
2024-02-19T11:51:41.675Z,64.46
2024-02-19T11:54:44.450Z,64.45
2024-02-19T11:57:49.160Z,64.34
2024-02-19T12:00:51.787Z,64.40
2024-02-19T12:03:54.325Z,64.33
2024-02-19T12:06:57.061Z,64.30
2024-02-19T12:10:01.191Z,64.31
2024-02-19T12:13:03.956Z,64.23
2024-02-19T12:16:06.896Z,64.19
2024-02-19T12:19:09.474Z,64.19
2024-02-19T12:22:13.882Z,64.15
2024-02-19T12:25:17.210Z,64.28
2024-02-19T12:28:19.504Z,64.41
2024-02-19T12:31:22.548Z,64.44
2024-02-19T12:34:24.922Z,64.54
2024-02-19T12:37:29.518Z,64.70
2024-02-19T12:40:32.226Z,64.68
2024-02-19T12:43:34.687Z,64.58
2024-02-19T12:46:36.956Z,64.42
2024-02-19T12:49:40.349Z,64.39
2024-02-19T12:52:43.909Z,64.32
2024-02-19T12:55:46.579Z,64.29
2024-02-19T12:58:48.773Z,64.34
2024-02-19T13:01:54.830Z,64.23
2024-02-19T13:04:57.309Z,64.16
2024-02-19T13:08:00.391Z,64.28
2024-02-19T13:11:02.574Z,64.28
2024-02-19T13:14:05.369Z,64.36
2024-02-19T13:17:13.854Z,64.20
2024-02-19T13:20:20.431Z,64.13
2024-02-19T13:23:22.778Z,64.08
2024-02-19T13:26:26.256Z,63.99
2024-02-19T13:29:28.768Z,64.46
2024-02-19T13:32:32.013Z,64.54
2024-02-19T13:35:35.753Z,64.36
2024-02-19T13:38:39.436Z,64.08
2024-02-19T13:41:43.124Z,63.92
2024-02-19T13:44:45.708Z,63.97
2024-02-19T13:47:48.414Z,64.39
2024-02-19T13:50:59.112Z,64.38
2024-02-19T13:54:01.530Z,64.48
2024-02-19T13:57:04.759Z,66.07
2024-02-19T14:00:07.486Z,65.71
2024-02-19T14:03:11.886Z,65.21
2024-02-19T14:06:16.966Z,65.65
2024-02-19T14:09:20.385Z,65.18
2024-02-19T14:12:22.972Z,65.39
2024-02-19T14:15:25.679Z,64.96
2024-02-19T14:18:28.135Z,64.47
2024-02-19T14:21:33.413Z,64.52
2024-02-19T14:24:35.806Z,65.44
2024-02-19T14:27:43.549Z,65.24
2024-02-19T14:30:45.891Z,64.89
2024-02-19T14:33:51.773Z,64.48
2024-02-19T14:36:54.451Z,64.23
2024-02-19T14:39:57.137Z,64.17
2024-02-19T14:42:59.980Z,64.04
2024-02-19T14:46:04.987Z,65.27
2024-02-19T14:49:11.108Z,65.03
2024-02-19T14:52:13.651Z,65.71
2024-02-19T14:55:16.442Z,66.30
2024-02-19T14:58:19.064Z,65.27
2024-02-19T15:01:21.371Z,64.55
2024-02-19T15:04:24.154Z,64.14
2024-02-19T15:07:26.812Z,64.10
2024-02-19T15:10:29.871Z,64.67
2024-02-19T15:13:32.597Z,68.75
2024-02-19T15:16:35.279Z,68.98
2024-02-19T15:19:37.732Z,68.29
2024-02-19T15:22:40.806Z,70.95
2024-02-19T15:25:43.632Z,69.88
2024-02-19T15:28:48.218Z,69.11
2024-02-19T15:31:50.297Z,69.20
2024-02-19T15:34:54.623Z,70.05
2024-02-19T15:37:57.889Z,73.47
2024-02-19T15:41:00.535Z,70.06
2024-02-19T15:44:05.587Z,73.73
2024-02-19T15:47:08.378Z,79.04
2024-02-19T15:50:12.080Z,76.72
2024-02-19T15:53:24.282Z,79.28
2024-02-19T15:56:30.845Z,79.64
2024-02-19T15:59:33.510Z,81.69
2024-02-19T16:02:41.404Z,80.36
2024-02-19T16:05:44.944Z,77.37
2024-02-19T16:08:47.098Z,81.15
2024-02-19T16:11:51.520Z,84.77
2024-02-19T16:14:53.830Z,86.02
2024-02-19T16:17:56.622Z,86.44
2024-02-19T16:20:59.154Z,86.64
2024-02-19T16:24:01.664Z,86.92
2024-02-19T16:27:07.021Z,86.91
2024-02-19T16:30:10.907Z,86.64
2024-02-19T16:33:14.691Z,86.41
2024-02-19T16:36:18.638Z,86.33
2024-02-19T16:39:21.129Z,86.27
2024-02-19T16:42:23.725Z,85.88
2024-02-19T16:45:27.170Z,85.16
2024-02-19T16:48:31.059Z,85.09
2024-02-19T16:51:33.298Z,84.83
2024-02-19T16:54:35.960Z,84.82
2024-02-19T16:57:39.294Z,84.95
2024-02-19T17:00:44.216Z,84.94
2024-02-19T17:03:47.954Z,84.61
2024-02-19T17:06:51.767Z,84.20
2024-02-19T17:09:54.439Z,84.23
2024-02-19T17:12:58.022Z,84.32
2024-02-19T17:16:00.205Z,84.45
2024-02-19T17:19:05.020Z,84.43
2024-02-19T17:22:07.497Z,84.63
2024-02-19T17:25:12.074Z,84.60
2024-02-19T17:28:14.634Z,84.65
2024-02-19T17:31:18.700Z,84.63
2024-02-19T17:34:20.991Z,84.64
2024-02-19T17:37:23.966Z,84.58
2024-02-19T17:40:27.508Z,84.34
2024-02-19T17:43:30.744Z,84.34
2024-02-19T17:46:33.345Z,84.31
2024-02-19T17:49:36.493Z,84.06
2024-02-19T17:52:39.936Z,83.81
2024-02-19T17:55:42.491Z,83.60
2024-02-19T17:58:45.029Z,83.57
2024-02-19T18:01:48.800Z,83.32
2024-02-19T18:04:55.792Z,83.18
2024-02-19T18:07:58.432Z,83.42
2024-02-19T18:11:00.701Z,83.39
2024-02-19T18:14:03.749Z,83.19
2024-02-19T18:17:07.464Z,83.19
2024-02-19T18:20:11.431Z,82.89
2024-02-19T18:23:13.848Z,83.00
2024-02-19T18:26:16.601Z,83.12
2024-02-19T18:29:18.816Z,83.03
2024-02-19T18:32:21.643Z,83.05
2024-02-19T18:35:25.325Z,82.89
2024-02-19T18:38:27.827Z,82.80
2024-02-19T18:41:33.612Z,82.77
2024-02-19T18:44:36.530Z,82.82
2024-02-19T18:47:41.754Z,82.88
2024-02-19T18:50:44.387Z,82.92
2024-02-19T18:53:47.191Z,83.10
2024-02-19T18:56:50.034Z,83.39
2024-02-19T18:59:52.296Z,83.12
2024-02-19T19:02:59.720Z,83.01
2024-02-19T19:06:04.957Z,82.82
2024-02-19T19:09:08.255Z,82.73
2024-02-19T19:12:12.034Z,83.02
2024-02-19T19:15:14.724Z,82.86
2024-02-19T19:18:17.266Z,83.09
2024-02-19T19:21:20.471Z,83.11
2024-02-19T19:24:22.620Z,83.19
2024-02-19T19:27:25.348Z,83.34
2024-02-19T19:30:28.487Z,83.10
2024-02-19T19:33:31.038Z,82.93
2024-02-19T19:36:33.404Z,83.07
2024-02-19T19:39:36.031Z,83.22
2024-02-19T19:42:40.528Z,83.06
2024-02-19T19:45:43.252Z,83.08
2024-02-19T19:48:47.277Z,83.28
2024-02-19T19:51:50.530Z,83.28
2024-02-19T19:54:54.478Z,83.54
2024-02-19T19:58:04.135Z,83.47
2024-02-19T20:01:11.897Z,83.53
2024-02-19T20:04:15.498Z,83.69
2024-02-19T20:07:18.158Z,83.75
2024-02-19T20:10:20.855Z,83.82
2024-02-19T20:13:23.945Z,83.64
2024-02-19T20:16:28.070Z,83.53
2024-02-19T20:19:31.309Z,83.58
2024-02-19T20:22:34.346Z,83.75
2024-02-19T20:25:37.371Z,83.72
2024-02-19T20:28:40.240Z,83.76
2024-02-19T20:31:42.427Z,83.72
2024-02-19T20:34:46.513Z,83.58
2024-02-19T20:37:49.018Z,83.27
2024-02-19T20:40:51.847Z,83.15
2024-02-19T20:43:54.122Z,83.08
2024-02-19T20:46:57.198Z,83.13
2024-02-19T20:50:01.657Z,82.95
2024-02-19T20:53:04.830Z,82.75
2024-02-19T20:56:06.884Z,81.63
2024-02-19T20:59:09.741Z,81.95
2024-02-19T21:02:13.589Z,82.18
2024-02-19T21:05:17.517Z,82.22
2024-02-19T21:08:20.073Z,82.10
2024-02-19T21:11:22.852Z,82.36
2024-02-19T21:14:25.497Z,82.36
2024-02-19T21:17:32.600Z,80.58
2024-02-19T21:20:35.690Z,77.97
2024-02-19T21:23:38.721Z,78.28
2024-02-19T21:26:40.895Z,80.04
2024-02-19T21:29:43.380Z,78.86
2024-02-19T21:32:47.605Z,79.09
2024-02-19T21:35:50.469Z,78.18
2024-02-19T21:38:53.089Z,79.41
2024-02-19T21:41:56.033Z,77.69
2024-02-19T21:44:58.714Z,75.23
2024-02-19T21:48:01.906Z,73.22
2024-02-19T21:51:05.529Z,72.38
2024-02-19T21:54:08.121Z,71.67
2024-02-19T21:57:10.363Z,73.79
2024-02-19T22:00:14.148Z,75.23
2024-02-19T22:03:16.740Z,77.91
2024-02-19T22:06:19.293Z,76.96
2024-02-19T22:09:21.614Z,73.94
2024-02-19T22:12:24.898Z,72.66
2024-02-19T22:15:30.097Z,70.87
2024-02-19T22:18:34.156Z,69.15
2024-02-19T22:21:37.044Z,68.35
2024-02-19T22:24:40.271Z,67.79
2024-02-19T22:27:45.677Z,67.43
2024-02-19T22:30:48.478Z,67.11
2024-02-19T22:33:50.803Z,67.10
2024-02-19T22:36:59.066Z,67.02
2024-02-19T22:40:01.562Z,66.84
2024-02-19T22:43:10.661Z,66.75
2024-02-19T22:46:13.080Z,66.78
2024-02-19T22:49:16.409Z,66.67
2024-02-19T22:52:20.071Z,66.53
2024-02-19T22:55:23.143Z,66.45
2024-02-19T22:58:31.185Z,66.39
2024-02-19T23:01:38.833Z,66.31
2024-02-19T23:04:44.125Z,66.28
2024-02-19T23:07:47.210Z,66.25
2024-02-19T23:10:49.783Z,67.11
2024-02-19T23:13:52.486Z,67.87
2024-02-19T23:16:54.673Z,67.74
2024-02-19T23:19:57.832Z,67.15
2024-02-19T23:23:01.394Z,66.84
2024-02-19T23:26:04.662Z,66.76
2024-02-19T23:29:07.109Z,66.58
2024-02-19T23:32:10.122Z,66.43
2024-02-19T23:35:12.477Z,66.27
2024-02-19T23:38:19.073Z,66.26
2024-02-19T23:41:21.242Z,66.21
2024-02-19T23:44:24.143Z,66.00
2024-02-19T23:47:26.600Z,66.01
2024-02-19T23:50:29.764Z,65.01
2024-02-19T23:53:31.972Z,67.76
2024-02-19T23:56:35.058Z,67.26
2024-02-19T23:59:37.803Z,66.75
